Time;durP1;ratioP1;P1;durP2;ratioP2;P2;SDS_P1;SDS_P2;PMS_P1;PMS_P2;Temp;Humidity;BMP_temperature;BMP_pressure;BME280_temperature;BME280_humidity;BME280_pressure;Samples;Min_cycle;Max_cycle;Signal;HPM_P1;HPM_P2
2023/02/28 00:01:52;;;;;;;2.28;2.17;;;0.60;1.00;;;;;;5079667;28;20178;-75
2023/02/28 00:04:40;;;;;;;2.20;2.10;;;0.60;1.00;;;;;;5064569;28;20176;-75
2023/02/28 00:07:16;;;;;;;2.40;2.20;;;0.60;1.00;;;;;;5056810;28;20184;-75
2023/02/28 00:09:42;;;;;;;2.83;2.50;;;0.60;1.00;;;;;;5056928;28;20285;-76
2023/02/28 00:12:10;;;;;;;2.83;2.63;;;0.60;1.00;;;;;;5074705;28;20209;-75
2023/02/28 00:14:40;;;;;;;3.30;3.00;;;0.50;1.00;;;;;;5075346;28;20661;-74
2023/02/28 00:17:10;;;;;;;2.28;2.17;;;0.50;1.00;;;;;;5076927;28;20531;-75
2023/02/28 00:19:52;;;;;;;2.92;2.72;;;0.50;1.00;;;;;;5063082;28;20174;-75
2023/02/28 00:22:28;;;;;;;2.80;2.60;;;0.40;1.00;;;;;;5096799;28;20237;-75
2023/02/28 00:28:16;;;;;;;2.72;2.45;;;0.40;1.00;;;;;;5076038;28;20225;-80
2023/02/28 00:31:10;;;;;;;2.60;2.40;;;0.40;1.00;;;;;;5075560;28;20183;-80
2023/02/28 00:36:57;;;;;;;3.00;2.80;;;0.40;1.00;;;;;;5056183;28;20178;-80
2023/02/28 00:39:28;;;;;;;2.60;2.50;;;0.40;1.00;;;;;;5076077;28;20613;-75
2023/02/28 00:41:58;;;;;;;2.53;2.42;;;0.30;1.00;;;;;;5056733;28;20199;-75
2023/02/28 00:44:46;;;;;;;3.70;3.40;;;0.40;1.00;;;;;;5074995;28;20257;-75
2023/02/28 00:47:58;;;;;;;5.22;2.95;;;0.40;1.00;;;;;;5073901;28;20232;-75
2023/02/28 00:50:28;;;;;;;3.03;2.85;;;0.40;1.00;;;;;;5075725;28;20676;-76
2023/02/28 00:53:04;;;;;;;3.55;3.25;;;0.40;1.00;;;;;;5075999;28;20195;-75
2023/02/28 01:12:19;;;;;;;3.33;3.10;;;0.20;1.00;;;;;;5055670;28;20838;-80
2023/02/28 01:18:07;;;;;;;3.70;3.40;;;0.10;1.00;;;;;;5073802;28;20245;-80
2023/02/28 01:23:57;;;;;;;3.70;3.40;;;0.10;1.00;;;;;;5068112;28;20688;-75
2023/02/28 01:26:29;;;;;;;3.33;3.10;;;0.10;1.00;;;;;;5068463;28;20769;-76
2023/02/28 01:28:59;;;;;;;4.20;3.85;;;0.10;1.00;;;;;;5074442;28;20206;-75
2023/02/28 01:31:25;;;;;;;5.32;3.40;;;0.10;1.00;;;;;;5074759;28;20179;-75
2023/02/28 01:33:50;;;;;;;4.10;3.80;;;0.00;1.00;;;;;;5060814;28;20184;-76
2023/02/28 01:36:22;;;;;;;3.57;3.27;;;0.00;1.00;;;;;;5062497;28;20183;-75
2023/02/28 01:49:14;;;;;;;4.55;3.72;;;-0.20;1.00;;;;;;5074357;28;20209;-80
2023/02/28 01:51:56;;;;;;;5.03;4.53;;;-0.30;1.00;;;;;;5074278;28;20198;-80
2023/02/28 02:04:38;;;;;;;4.90;4.10;;;-0.40;1.00;;;;;;5074265;28;20190;-81
2023/02/28 02:07:12;;;;;;;5.30;4.18;;;-0.40;1.00;;;;;;5073949;28;20170;-80
2023/02/28 02:13:15;;;;;;;5.75;4.32;;;-0.50;1.00;;;;;;5056166;28;20246;-80
2023/02/28 02:19:29;;;;;;;5.38;4.55;;;-0.50;1.00;;;;;;5067046;28;20170;-80
2023/02/28 02:28:51;;;;;;;6.35;4.10;;;-0.70;1.00;;;;;;5070346;28;20243;-80
2023/02/28 02:34:42;;;;;;;4.80;4.40;;;-0.70;1.00;;;;;;5063863;28;20185;-80
2023/02/28 02:40:41;;;;;;;6.03;4.75;;;-0.70;1.00;;;;;;5062759;28;20227;-80
2023/02/28 02:46:34;;;;;;;5.07;4.07;;;-0.70;1.00;;;;;;5053823;28;20175;-80
2023/02/28 02:49:33;;;;;;;5.47;4.50;;;-0.80;1.00;;;;;;5061779;28;20234;-80
2023/02/28 02:55:32;;;;;;;5.88;4.07;;;-0.80;1.00;;;;;;4990569;28;20237;-76
2023/02/28 02:58:06;;;;;;;4.18;3.78;;;-0.90;1.00;;;;;;4992109;28;20208;-75
2023/02/28 03:00:40;;;;;;;4.18;3.78;;;-0.90;1.00;;;;;;4991814;28;20197;-75
2023/02/28 03:03:29;;;;;;;5.13;4.50;;;-0.90;1.00;;;;;;4992262;28;20192;-76
2023/02/28 03:05:58;;;;;;;7.68;4.65;;;-0.90;1.00;;;;;;4975027;28;20646;-75
2023/02/28 03:08:35;;;;;;;4.22;3.83;;;-0.90;1.00;;;;;;4982502;28;20578;-75
2023/02/28 03:14:30;;;;;;;4.65;4.22;;;-0.90;1.00;;;;;;4998735;28;20180;-80
2023/02/28 03:17:36;;;;;;;4.03;3.72;;;-0.90;1.00;;;;;;4998592;28;20227;-80
2023/02/28 03:30:53;;;;;;;4.20;3.80;;;-1.00;1.00;;;;;;5069197;28;20190;-80
2023/02/28 03:36:57;;;;;;;5.35;4.03;;;-1.00;1.00;;;;;;5059548;28;20186;-80
2023/02/28 03:40:12;;;;;;;4.45;4.05;;;-1.10;1.00;;;;;;5065093;28;20267;-80
2023/02/28 03:42:41;;;;;;;4.32;3.92;;;-1.10;1.00;;;;;;5078396;28;20195;-75
2023/02/28 03:45:27;;;;;;;4.10;3.80;;;-1.10;1.00;;;;;;5079880;28;20155;-75
2023/02/28 03:47:54;;;;;;;4.20;3.83;;;-1.10;1.00;;;;;;5083024;28;20793;-75
2023/02/28 03:50:34;;;;;;;4.43;3.90;;;-1.10;1.00;;;;;;5070706;28;20273;-75
2023/02/28 03:53:23;;;;;;;4.93;4.10;;;-1.10;1.00;;;;;;5074413;28;20184;-75
2023/02/28 03:55:56;;;;;;;4.00;3.70;;;-1.10;1.00;;;;;;5070258;28;20184;-76
2023/02/28 04:01:59;;;;;;;3.90;3.60;;;-1.10;1.00;;;;;;5069923;28;20205;-75
2023/02/28 04:04:35;;;;;;;3.75;3.53;;;-1.10;1.00;;;;;;5059794;28;20471;-75
2023/02/28 04:07:31;;;;;;;4.60;3.85;;;-1.10;1.00;;;;;;5087388;28;20182;-74
2023/02/28 04:10:05;;;;;;;4.07;3.67;;;-1.10;1.00;;;;;;5091861;28;20501;-75
2023/02/28 04:13:16;;;;;;;3.97;3.40;;;-1.10;1.00;;;;;;5079373;28;20183;-80
2023/02/28 04:19:58;;;;;;;4.05;3.63;;;-1.00;1.00;;;;;;5072637;28;20325;-80
2023/02/28 04:26:16;;;;;;;3.70;3.40;;;-1.10;1.00;;;;;;5065020;28;20264;-80
2023/02/28 04:29:22;;;;;;;3.17;2.97;;;-1.00;1.00;;;;;;5076085;28;20229;-80
2023/02/28 04:35:16;;;;;;;3.45;3.25;;;-1.00;1.00;;;;;;5077084;28;20653;-80
2023/02/28 04:38:29;;;;;;;3.40;3.20;;;-1.00;1.00;;;;;;5065723;28;20314;-80
2023/02/28 04:40:59;;;;;;;3.80;3.50;;;-1.00;1.00;;;;;;5068822;28;20533;-76
2023/02/28 04:43:29;;;;;;;3.92;3.63;;;-0.90;1.00;;;;;;5062317;28;20218;-75
2023/02/28 04:46:05;;;;;;;5.10;3.90;;;-0.90;1.00;;;;;;5057654;28;20158;-75
2023/02/28 04:49:04;;;;;;;4.47;3.45;;;-0.80;1.00;;;;;;5075660;28;20289;-75
2023/02/28 04:51:41;;;;;;;4.05;3.50;;;-0.80;1.00;;;;;;5055564;28;20262;-75
2023/02/28 04:54:22;;;;;;;4.70;3.70;;;-0.70;1.00;;;;;;5055744;28;20626;-75
2023/02/28 05:00:11;;;;;;;2.92;2.80;;;-0.60;1.00;;;;;;5057580;28;20552;-80
2023/02/28 05:05:58;;;;;;;2.95;2.67;;;-0.50;1.00;;;;;;5055932;28;20246;-81
2023/02/28 05:08:34;;;;;;;2.93;2.73;;;-0.40;1.00;;;;;;5061743;28;20639;-80
2023/02/28 05:14:22;;;;;;;3.70;3.30;;;-0.40;1.00;;;;;;5075945;28;20711;-76
2023/02/28 05:16:48;;;;;;;3.25;2.95;;;-0.40;1.00;;;;;;5075511;28;20744;-75
2023/02/28 05:19:28;;;;;;;2.90;2.70;;;-0.40;1.00;;;;;;5075002;28;20258;-75
2023/02/28 05:21:58;;;;;;;4.07;2.78;;;-0.40;1.00;;;;;;5075173;28;20645;-75
2023/02/28 05:24:46;;;;;;;3.30;3.10;;;-0.40;1.00;;;;;;5067768;28;20187;-75
2023/02/28 05:30:35;;;;;;;2.88;2.67;;;-0.50;1.00;;;;;;5068206;28;20665;-76
2023/02/28 05:36:23;;;;;;;4.60;2.80;;;-0.50;1.00;;;;;;5090565;28;20193;-76
2023/02/28 05:38:58;;;;;;;3.63;3.05;;;-0.50;1.00;;;;;;5086030;28;20182;-74
2023/02/28 05:41:28;;;;;;;9.25;2.83;;;-0.60;1.00;;;;;;5058547;28;20230;-74
2023/02/28 05:43:54;;;;;;;3.10;2.90;;;-0.60;1.00;;;;;;5066648;28;20661;-75
2023/02/28 05:46:28;;;;;;;2.53;2.43;;;-0.60;1.00;;;;;;5079188;28;20168;-75
2023/02/28 05:48:55;;;;;;;2.80;2.40;;;-0.60;1.00;;;;;;5082019;28;20740;-75
2023/02/28 05:51:28;;;;;;;2.55;2.35;;;-0.70;1.00;;;;;;5073705;28;20182;-74
2023/02/28 05:54:05;;;;;;;3.08;2.88;;;-0.70;1.00;;;;;;5073610;28;20190;-74
2023/02/28 05:56:31;;;;;;;3.17;2.90;;;-0.80;1.00;;;;;;5066315;28;20217;-76
2023/02/28 05:59:16;;;;;;;3.33;2.92;;;-0.80;1.00;;;;;;5074193;28;20179;-75
2023/02/28 06:02:04;;;;;;;6.78;2.80;;;-0.80;1.00;;;;;;5073873;28;20175;-75
2023/02/28 06:04:46;;;;;;;2.88;2.67;;;-0.80;1.00;;;;;;5054395;28;20160;-75
2023/02/28 06:10:35;;;;;;;4.18;2.80;;;-0.90;1.00;;;;;;5080478;28;20193;-76
2023/02/28 06:13:12;;;;;;;5.15;2.80;;;-0.80;1.00;;;;;;5064669;28;20224;-75
2023/02/28 06:19:02;;;;;;;3.03;2.83;;;-0.80;1.00;;;;;;5059732;28;20173;-75
2023/02/28 06:22:22;;;;;;;3.20;2.60;;;-0.80;1.00;;;;;;5072350;28;20166;-76
2023/02/28 06:25:28;;;;;;;2.47;2.28;;;-0.80;1.00;;;;;;5073437;28;20189;-75
2023/02/28 06:27:55;;;;;;;3.50;3.20;;;-0.70;1.00;;;;;;5074012;28;20695;-74
2023/02/28 06:30:25;;;;;;;3.00;2.80;;;-0.80;1.00;;;;;;5072164;28;20289;-74
2023/02/28 06:32:51;;;;;;;2.85;2.60;;;-0.70;1.00;;;;;;5074096;28;20660;-74
2023/02/28 06:35:17;;;;;;;4.05;3.00;;;-0.70;1.00;;;;;;5073581;28;20178;-69
2023/02/28 06:37:43;;;;;;;3.27;2.90;;;-0.70;1.00;;;;;;5071852;28;20193;-69
2023/02/28 06:40:10;;;;;;;4.50;2.55;;;-0.70;1.00;;;;;;5071716;28;20433;-69
2023/02/28 06:42:35;;;;;;;2.80;2.58;;;-0.70;1.00;;;;;;5073189;28;20203;-69
2023/02/28 06:45:04;;;;;;;2.80;2.60;;;-0.60;1.00;;;;;;5082860;28;20514;-69
2023/02/28 06:47:30;;;;;;;3.42;3.15;;;-0.60;1.00;;;;;;5070973;28;20179;-75
2023/02/28 06:49:56;;;;;;;3.47;2.75;;;-0.60;1.00;;;;;;5061276;28;20364;-75
2023/02/28 06:52:22;;;;;;;3.67;2.93;;;-0.50;1.00;;;;;;5056920;28;20206;-75
2023/02/28 06:54:59;;;;;;;3.10;2.80;;;-0.50;1.00;;;;;;5073410;28;20193;-74
2023/02/28 06:57:30;;;;;;;4.18;3.03;;;-0.40;1.00;;;;;;5073179;28;20178;-69
2023/02/28 07:00:00;;;;;;;3.60;3.10;;;-0.30;1.00;;;;;;5068137;28;20191;-69
2023/02/28 07:02:26;;;;;;;6.30;2.60;;;-0.30;1.00;;;;;;5072064;28;20203;-69
2023/02/28 07:04:52;;;;;;;4.00;2.75;;;-0.20;1.00;;;;;;5063475;28;20633;-69
2023/02/28 07:07:17;;;;;;;2.90;2.70;;;-0.10;1.00;;;;;;5067979;28;20209;-69
2023/02/28 07:09:43;;;;;;;3.57;2.87;;;0.00;1.00;;;;;;5070459;28;20187;-69
2023/02/28 07:12:09;;;;;;;2.60;2.40;;;0.00;1.00;;;;;;5065271;28;20271;-70
2023/02/28 07:14:37;;;;;;;3.20;2.90;;;0.10;1.00;;;;;;5060672;28;20854;-70
2023/02/28 07:17:03;;;;;;;3.58;3.10;;;0.10;1.00;;;;;;5068853;28;20238;-70
2023/02/28 07:19:29;;;;;;;2.80;2.57;;;0.20;1.00;;;;;;5063355;28;20190;-70
2023/02/28 07:21:54;;;;;;;5.33;3.30;;;0.20;1.00;;;;;;5066672;28;20778;-70
2023/02/28 07:24:20;;;;;;;3.53;3.10;;;0.30;1.00;;;;;;5061405;28;20505;-70
2023/02/28 07:26:46;;;;;;;4.77;2.60;;;0.50;1.00;;;;;;5072594;28;20182;-70
2023/02/28 07:29:12;;;;;;;5.60;3.00;;;0.50;1.00;;;;;;5070141;28;20452;-70
2023/02/28 07:31:38;;;;;;;5.10;3.37;;;0.60;1.00;;;;;;5070405;28;20587;-70
2023/02/28 07:34:05;;;;;;;5.10;3.13;;;0.70;1.00;;;;;;5062428;28;20650;-70
2023/02/28 07:36:30;;;;;;;5.70;3.25;;;0.80;1.00;;;;;;5071240;28;20501;-70
2023/02/28 07:38:58;;;;;;;3.30;2.87;;;0.90;1.00;;;;;;5065913;28;20635;-70
2023/02/28 07:41:27;;;;;;;3.10;2.60;;;1.00;1.00;;;;;;5069519;28;20444;-70
2023/02/28 07:43:57;;;;;;;3.15;2.85;;;1.10;1.00;;;;;;5059082;28;20548;-70
2023/02/28 07:46:23;;;;;;;4.35;3.05;;;1.10;1.00;;;;;;5069054;28;20185;-71
2023/02/28 07:48:48;;;;;;;7.00;3.47;;;1.20;1.00;;;;;;5066614;28;20672;-70
2023/02/28 07:51:14;;;;;;;4.73;2.83;;;1.30;1.00;;;;;;5066882;28;20253;-70
2023/02/28 07:53:40;;;;;;;3.30;3.00;;;1.40;1.00;;;;;;5073824;28;20661;-70
2023/02/28 07:56:06;;;;;;;3.67;3.10;;;1.40;1.00;;;;;;5070594;28;20270;-70
2023/02/28 07:59:10;;;;;;;3.47;3.10;;;1.50;1.00;;;;;;5074739;28;20202;-80
2023/02/28 08:08:19;;;;;;;3.90;3.30;;;1.90;1.00;;;;;;5076071;28;20655;-79
2023/02/28 08:11:40;;;;;;;3.00;2.70;;;1.90;1.00;;;;;;5068818;28;20187;-79
2023/02/28 08:14:06;;;;;;;3.40;3.10;;;2.00;1.00;;;;;;5062527;28;20192;-75
2023/02/28 08:16:35;;;;;;;2.60;2.23;;;2.00;1.00;;;;;;5074276;28;20307;-75
2023/02/28 08:19:00;;;;;;;2.90;2.70;;;2.10;1.00;;;;;;5075888;28;20233;-74
2023/02/28 08:21:26;;;;;;;2.97;2.67;;;2.20;1.00;;;;;;5071610;28;20179;-75
2023/02/28 08:23:52;;;;;;;3.67;2.90;;;2.20;1.00;;;;;;5076118;28;20195;-75
2023/02/28 08:26:29;;;;;;;4.27;2.50;;;2.30;1.00;;;;;;5085408;28;20187;-76
2023/02/28 08:28:55;;;;;;;1.35;1.25;;;2.40;1.00;;;;;;5070348;28;20424;-76
2023/02/28 08:31:20;;;;;;;2.70;2.50;;;2.40;1.00;;;;;;5075510;28;20185;-75
2023/02/28 08:33:48;;;;;;;3.80;2.37;;;2.40;1.00;;;;;;5076397;28;20238;-75
2023/02/28 08:36:34;;;;;;;6.80;2.40;;;2.50;1.00;;;;;;5065079;28;20253;-75
2023/02/28 08:39:05;;;;;;;2.90;2.25;;;2.60;1.00;;;;;;5075874;28;20251;-75
2023/02/28 08:41:31;;;;;;;3.67;2.22;;;2.60;1.00;;;;;;5074310;28;20175;-75
2023/02/28 08:47:19;;;;;;;4.63;2.50;;;2.70;1.00;;;;;;5073960;28;20490;-79
2023/02/28 08:49:45;;;;;;;2.50;2.30;;;2.80;1.00;;;;;;5068477;28;20241;-79
2023/02/28 08:52:10;;;;;;;3.37;2.30;;;2.80;1.00;;;;;;5067098;28;20437;-79
2023/02/28 08:58:22;;;;;;;2.80;2.45;;;2.90;1.00;;;;;;5068145;28;20601;-75
2023/02/28 09:00:59;;;;;;;3.20;2.80;;;3.00;1.00;;;;;;5069450;28;20182;-74
2023/02/28 09:03:35;;;;;;;2.70;2.50;;;3.00;1.00;;;;;;5075669;28;20252;-75
2023/02/28 09:06:11;;;;;;;3.25;2.58;;;3.10;1.00;;;;;;5066002;28;20285;-74
2023/02/28 09:08:38;;;;;;;3.22;2.45;;;3.20;1.00;;;;;;5076656;28;20171;-75
2023/02/28 09:11:04;;;;;;;2.95;2.45;;;3.30;1.00;;;;;;5059970;28;20183;-74
2023/02/28 09:13:35;;;;;;;2.10;2.00;;;3.30;1.00;;;;;;5075583;28;20215;-76
2023/02/28 09:16:14;;;;;;;2.92;2.63;;;3.40;1.00;;;;;;5065759;28;20194;-76
2023/02/28 09:18:41;;;;;;;2.50;2.30;;;3.40;1.00;;;;;;5074942;28;20540;-74
2023/02/28 09:21:14;;;;;;;2.53;2.33;;;3.50;1.00;;;;;;5075249;28;20420;-75
2023/02/28 09:23:40;;;;;;;4.13;2.85;;;3.60;1.00;;;;;;5064329;28;20264;-74
2023/02/28 09:26:28;;;;;;;3.80;2.73;;;3.70;1.00;;;;;;5073232;28;20193;-78
2023/02/28 09:29:46;;;;;;;2.58;2.15;;;3.70;1.00;;;;;;5073849;28;20935;-77
2023/02/28 09:32:17;;;;;;;4.03;2.38;;;3.70;1.00;;;;;;5074161;28;20557;-78
2023/02/28 09:34:46;;;;;;;2.72;2.33;;;3.80;1.00;;;;;;5074721;28;20198;-77
2023/02/28 09:37:47;;;;;;;2.00;1.90;;;3.70;1.00;;;;;;5074473;28;20518;-77
2023/02/28 09:47:26;;;;;;;8.27;2.75;;;3.80;1.00;;;;;;5062284;28;20443;-77
2023/02/28 09:49:52;;;;;;;2.40;2.30;;;3.90;1.00;;;;;;5074469;28;20244;-78
2023/02/28 09:52:58;;;;;;;4.70;2.90;;;4.00;1.00;;;;;;5074793;28;20281;-77
2023/02/28 09:56:05;;;;;;;6.27;2.47;;;4.00;1.00;;;;;;5063633;28;20429;-77
2023/02/28 09:58:33;;;;;;;4.15;2.78;;;4.20;1.00;;;;;;4993844;28;20522;-87
2023/02/28 10:04:58;;;;;;;4.80;3.17;;;4.50;1.00;;;;;;4991300;28;20459;-87
2023/02/28 10:18:06;;;;;;;3.30;2.77;;;5.30;1.00;;;;;;5012136;28;20402;-87
2023/02/28 10:27:28;;;;;;;3.10;2.80;;;5.60;1.00;;;;;;5013172;28;20368;-87
2023/02/28 10:30:01;;;;;;;6.10;3.57;;;6.00;1.00;;;;;;5013363;28;20559;-87
2023/02/28 10:32:58;;;;;;;6.33;4.10;;;6.40;1.00;;;;;;4997501;28;20515;-86
2023/02/28 10:35:25;;;;;;;6.10;3.83;;;6.70;1.00;;;;;;5047075;28;20417;-87
2023/02/28 10:38:34;;;;;;;5.83;3.47;;;6.90;1.00;;;;;;5050280;28;20509;-87
2023/02/28 10:44:23;;;;;;;3.47;3.00;;;7.30;1.00;;;;;;5064680;28;20459;-87
2023/02/28 10:50:45;;;;;;;2.43;2.23;;;7.00;1.00;;;;;;5074396;28;20515;-86
2023/02/28 10:53:25;;;;;;;3.53;3.10;;;6.80;1.00;;;;;;5056710;28;20440;-87
2023/02/28 10:59:34;;;;;;;5.20;2.93;;;6.80;1.00;;;;;;5074354;28;20412;-78
2023/02/28 11:02:46;;;;;;;3.87;3.47;;;6.80;1.00;;;;;;5061606;28;20432;-77
2023/02/28 11:05:58;;;;;;;3.97;2.67;;;6.70;1.00;;;;;;5057513;28;20425;-78
2023/02/28 11:11:48;;;;;;;4.70;3.37;;;6.40;1.00;;;;;;5063066;28;20453;-76
2023/02/28 11:21:01;;;;;;;4.73;3.20;;;6.90;1.00;;;;;;5068907;28;20408;-77
2023/02/28 11:26:49;;;;;;;4.10;3.43;;;7.00;1.00;;;;;;5066648;28;20450;-77
2023/02/28 11:29:40;;;;;;;4.73;2.93;;;7.10;1.00;;;;;;5074874;28;20425;-77
2023/02/28 11:32:13;;;;;;;3.50;3.20;;;7.30;1.00;;;;;;5067171;28;20190;-70
2023/02/28 11:34:40;;;;;;;5.73;3.90;;;7.40;1.00;;;;;;5063686;28;20453;-71
2023/02/28 11:37:27;;;;;;;3.63;3.33;;;7.40;1.00;;;;;;5081670;28;20544;-71
2023/02/28 11:39:53;;;;;;;3.30;3.00;;;7.60;1.00;;;;;;5056149;28;20475;-71
2023/02/28 11:42:30;;;;;;;3.97;3.43;;;7.70;1.00;;;;;;5072145;28;20503;-71
2023/02/28 11:45:28;;;;;;;4.60;3.37;;;8.00;1.00;;;;;;5074144;28;20409;-74
2023/02/28 11:48:17;;;;;;;3.87;3.53;;;8.10;1.00;;;;;;5077057;28;20736;-74
2023/02/28 11:51:26;;;;;;;5.27;3.83;;;8.00;1.00;;;;;;5066166;28;20950;-74
2023/02/28 11:53:55;;;;;;;3.63;3.30;;;8.00;1.00;;;;;;5059210;28;20827;-75
2023/02/28 11:56:43;;;;;;;7.80;3.23;;;7.90;1.00;;;;;;5076994;28;20413;-74
2023/02/28 11:59:35;;;;;;;4.80;3.60;;;7.90;1.00;;;;;;5084544;28;20416;-75
2023/02/28 12:02:40;;;;;;;4.77;3.77;;;7.90;1.00;;;;;;5064987;28;20508;-74
2023/02/28 12:05:14;;;;;;;4.40;4.00;;;7.80;1.00;;;;;;5064230;28;20421;-74
2023/02/28 12:07:58;;;;;;;7.33;3.83;;;7.70;1.00;;;;;;5082684;28;20428;-74
2023/02/28 12:10:57;;;;;;;6.90;3.53;;;7.70;1.00;;;;;;5076537;28;20389;-74
2023/02/28 12:13:46;;;;;;;4.50;3.70;;;7.50;1.00;;;;;;5023202;28;20477;-74
2023/02/28 12:16:54;;;;;;;4.23;3.83;;;7.50;1.00;;;;;;5023856;28;20465;-74
2023/02/28 12:19:50;;;;;;;7.07;4.73;;;7.50;1.00;;;;;;5037177;28;20975;-74
2023/02/28 12:22:52;;;;;;;5.30;3.37;;;7.50;1.00;;;;;;5039979;28;20441;-73
2023/02/28 12:25:23;;;;;;;7.13;4.03;;;7.50;1.00;;;;;;5021641;28;20826;-74
2023/02/28 12:27:54;;;;;;;7.23;4.07;;;7.60;1.00;;;;;;5022161;28;20439;-75
2023/02/28 12:30:26;;;;;;;7.27;3.80;;;7.50;1.00;;;;;;5033399;28;20425;-73
2023/02/28 12:33:07;;;;;;;5.80;4.67;;;7.50;1.00;;;;;;5025717;28;20443;-75
2023/02/28 12:36:08;;;;;;;5.30;4.00;;;7.40;1.00;;;;;;5014284;28;20427;-74
2023/02/28 12:38:42;;;;;;;5.27;4.30;;;7.30;1.00;;;;;;5017629;28;20534;-74
2023/02/28 12:41:34;;;;;;;12.87;4.73;;;7.20;1.00;;;;;;5028940;28;20434;-74
2023/02/28 12:44:31;;;;;;;5.87;4.87;;;7.10;1.00;;;;;;5032800;28;20477;-74
2023/02/28 12:50:20;;;;;;;5.57;4.60;;;7.00;1.00;;;;;;4940048;29;20858;-74
2023/02/28 12:52:59;;;;;;;6.73;4.73;;;7.10;1.00;;;;;;4950522;28;20442;-74
2023/02/28 12:59:05;;;;;;;6.07;4.40;;;7.20;1.00;;;;;;4938177;29;20403;-79
2023/02/28 13:02:08;;;;;;;6.13;4.07;;;7.40;1.00;;;;;;4955259;29;20530;-79
2023/02/28 13:05:16;;;;;;;5.40;4.50;;;7.50;1.00;;;;;;4955106;29;20441;-75
2023/02/28 13:08:12;;;;;;;20.00;4.60;;;7.60;1.00;;;;;;4948686;29;20411;-75
2023/02/28 13:10:54;;;;;;;5.93;4.40;;;7.70;1.00;;;;;;4955161;29;20414;-75
2023/02/28 13:13:31;;;;;;;10.17;4.80;;;7.50;1.00;;;;;;4940017;29;20411;-78
2023/02/28 13:16:17;;;;;;;7.50;5.20;;;7.50;1.00;;;;;;4953704;29;20418;-82
2023/02/28 13:29:04;;;;;;;8.20;4.40;;;7.10;1.00;;;;;;5054940;28;20459;-78
2023/02/28 13:35:42;;;;;;;9.73;4.50;;;7.00;1.00;;;;;;5074873;28;20479;-78
2023/02/28 13:41:29;;;;;;;7.83;4.13;;;7.00;1.00;;;;;;4993354;28;20910;-78
2023/02/28 13:44:26;;;;;;;6.87;4.80;;;7.10;1.00;;;;;;4993587;28;20535;-79
2023/02/28 13:47:33;;;;;;;10.43;4.90;;;7.10;1.00;;;;;;4993781;28;20159;-79
2023/02/28 13:56:51;;;;;;;6.40;4.57;;;7.20;1.00;;;;;;5012812;28;20919;-79
2023/02/28 13:59:58;;;;;;;6.47;5.00;;;7.30;1.00;;;;;;5013008;28;20894;-78
2023/02/28 14:02:58;;;;;;;5.03;3.90;;;7.40;1.00;;;;;;5013311;28;20415;-77
2023/02/28 14:05:47;;;;;;;5.47;4.20;;;7.40;1.00;;;;;;5012575;28;20880;-76
2023/02/28 14:11:40;;;;;;;7.90;4.57;;;7.30;1.00;;;;;;5012282;28;20465;-76
2023/02/28 14:14:37;;;;;;;12.17;4.30;;;7.30;1.00;;;;;;5030649;28;20432;-76
2023/02/28 14:17:40;;;;;;;5.23;4.73;;;7.30;1.00;;;;;;5072891;28;20400;-76
2023/02/28 14:20:58;;;;;;;6.43;4.70;;;7.40;1.00;;;;;;5079367;28;20503;-76
2023/02/28 14:24:01;;;;;;;6.77;4.70;;;7.30;1.00;;;;;;5072507;28;20986;-76
2023/02/28 14:27:19;;;;;;;9.27;4.97;;;7.20;1.00;;;;;;5054045;28;20386;-77
2023/02/28 14:30:28;;;;;;;7.13;4.63;;;7.10;1.00;;;;;;4992456;28;20876;-77
2023/02/28 14:36:58;;;;;;;11.40;4.27;;;7.20;1.00;;;;;;5005983;28;20850;-76
2023/02/28 14:39:30;;;;;;;4.60;3.70;;;7.30;1.00;;;;;;5012107;28;20428;-76
2023/02/28 14:42:43;;;;;;;9.57;4.53;;;7.40;1.00;;;;;;5012203;28;20502;-76
2023/02/28 14:45:30;;;;;;;6.53;4.73;;;7.40;1.00;;;;;;5007760;28;20827;-76
2023/02/28 14:48:00;;;;;;;6.30;4.70;;;7.40;1.00;;;;;;5012331;28;20419;-78
2023/02/28 14:51:00;;;;;;;5.80;4.70;;;7.50;1.00;;;;;;5011899;28;20439;-78
2023/02/28 14:54:00;;;;;;;6.40;5.20;;;7.50;1.00;;;;;;5011968;28;20502;-78
2023/02/28 14:56:58;;;;;;;5.40;4.90;;;7.60;1.00;;;;;;5012112;28;20415;-78
2023/02/28 15:03:24;;;;;;;9.50;5.53;;;7.80;1.00;;;;;;5011551;28;20482;-76
2023/02/28 15:06:17;;;;;;;8.30;5.03;;;7.90;1.00;;;;;;5068330;28;20788;-76
2023/02/28 15:09:22;;;;;;;8.43;4.70;;;8.00;1.00;;;;;;5073298;28;20935;-76
2023/02/28 15:12:28;;;;;;;7.03;5.27;;;7.90;1.00;;;;;;5073425;28;20413;-76
2023/02/28 15:15:49;;;;;;;6.40;4.27;;;7.90;1.00;;;;;;5064617;28;20420;-76
2023/02/28 15:18:47;;;;;;;5.67;4.70;;;7.70;1.00;;;;;;4984178;28;20429;-77
2023/02/28 15:21:58;;;;;;;6.60;4.63;;;7.60;1.00;;;;;;4992044;28;20472;-77
2023/02/28 15:24:58;;;;;;;6.20;4.80;;;7.60;1.00;;;;;;4999243;28;20498;-78
2023/02/28 15:27:32;;;;;;;9.20;4.40;;;7.50;1.00;;;;;;4978842;28;20436;-79
2023/02/28 15:33:30;;;;;;;8.60;5.00;;;7.40;1.00;;;;;;4991528;28;20440;-79
2023/02/28 15:36:31;;;;;;;5.23;4.40;;;7.40;1.00;;;;;;4991486;28;20588;-82
2023/02/28 15:39:29;;;;;;;6.93;4.90;;;7.40;1.00;;;;;;4975652;28;20531;-81
2023/02/28 15:42:34;;;;;;;6.90;5.07;;;7.30;1.00;;;;;;4991894;28;20440;-83
2023/02/28 15:45:34;;;;;;;7.63;5.30;;;7.30;1.00;;;;;;4992005;28;20471;-81
2023/02/28 15:48:49;;;;;;;5.93;4.33;;;7.20;1.00;;;;;;4983194;28;20421;-77
2023/02/28 15:51:51;;;;;;;5.93;5.07;;;7.10;1.00;;;;;;4953955;28;20516;-77
2023/02/28 15:54:34;;;;;;;5.43;4.70;;;7.00;1.00;;;;;;4953108;28;20449;-77
2023/02/28 15:57:29;;;;;;;5.27;4.00;;;7.10;1.00;;;;;;4945718;29;20435;-78
2023/02/28 16:00:04;;;;;;;6.10;4.70;;;7.10;1.00;;;;;;4952384;29;20538;-75
2023/02/28 16:02:37;;;;;;;7.57;5.27;;;7.30;1.00;;;;;;4953015;29;20429;-79
2023/02/28 16:05:31;;;;;;;6.70;4.93;;;7.20;1.00;;;;;;4956424;28;20425;-78
2023/02/28 16:08:13;;;;;;;5.70;4.83;;;7.30;1.00;;;;;;4952402;29;20426;-78
2023/02/28 16:10:53;;;;;;;6.30;5.10;;;7.20;1.00;;;;;;4952838;29;20874;-87
2023/02/28 16:13:58;;;;;;;10.10;4.73;;;7.10;1.00;;;;;;4936844;29;20426;-81
2023/02/28 16:17:03;;;;;;;7.80;5.00;;;7.10;1.00;;;;;;4955964;28;20534;-78
2023/02/28 16:19:29;;;;;;;8.40;4.67;;;7.20;1.00;;;;;;4956093;29;20485;-77
2023/02/28 16:21:59;;;;;;;6.83;5.43;;;7.10;1.00;;;;;;4955926;29;20476;-78
2023/02/28 16:24:29;;;;;;;6.43;5.10;;;7.00;1.00;;;;;;4955983;28;20510;-77
2023/02/28 16:30:31;;;;;;;6.20;4.80;;;6.80;1.00;;;;;;5046574;28;20404;-77
2023/02/28 16:32:59;;;;;;;10.63;5.10;;;6.70;1.00;;;;;;5074106;28;20421;-78
2023/02/28 16:35:29;;;;;;;5.90;5.07;;;6.60;1.00;;;;;;5079629;28;20405;-78
2023/02/28 16:38:28;;;;;;;6.07;4.47;;;6.50;1.00;;;;;;5076107;28;20995;-79
2023/02/28 16:41:01;;;;;;;6.40;4.50;;;6.40;1.00;;;;;;5071221;28;20429;-79
2023/02/28 16:43:29;;;;;;;6.77;4.80;;;6.30;1.00;;;;;;5078827;28;20449;-78
2023/02/28 16:46:01;;;;;;;5.63;4.30;;;6.10;1.00;;;;;;5057514;28;20893;-78
2023/02/28 16:48:30;;;;;;;5.60;4.30;;;5.90;1.00;;;;;;5056289;28;20800;-77
2023/02/28 16:50:59;;;;;;;7.00;4.97;;;5.80;1.00;;;;;;5075137;28;20436;-76
2023/02/28 16:53:29;;;;;;;8.10;5.10;;;5.60;1.00;;;;;;5075725;28;20426;-76
2023/02/28 16:56:02;;;;;;;6.90;4.23;;;5.50;1.00;;;;;;5059482;28;20963;-77
2023/02/28 16:58:29;;;;;;;7.73;5.30;;;5.40;1.00;;;;;;5069288;28;20499;-76
2023/02/28 17:00:59;;;;;;;10.10;5.30;;;5.20;1.00;;;;;;5075099;28;20431;-75
2023/02/28 17:03:27;;;;;;;7.13;4.43;;;5.10;1.00;;;;;;5060773;28;20492;-76
2023/02/28 17:06:29;;;;;;;6.80;4.23;;;5.00;1.00;;;;;;5064487;28;20802;-75
2023/02/28 17:08:59;;;;;;;8.03;4.80;;;4.90;1.00;;;;;;5060595;28;20446;-76
2023/02/28 17:11:59;;;;;;;13.53;5.30;;;4.70;1.00;;;;;;5070102;28;20496;-76
2023/02/28 17:14:29;;;;;;;4.70;3.90;;;4.60;1.00;;;;;;5062347;28;20788;-76
2023/02/28 17:16:55;;;;;;;9.70;5.00;;;4.40;1.00;;;;;;5062360;28;20448;-76
2023/02/28 17:19:23;;;;;;;8.80;4.57;;;4.40;1.00;;;;;;5075178;28;21055;-75
2023/02/28 17:21:59;;;;;;;31.23;11.13;;;4.30;1.00;;;;;;5061985;28;20650;-76
2023/02/28 17:24:29;;;;;;;7.40;4.97;;;4.20;1.00;;;;;;5075154;28;20477;-76
2023/02/28 17:26:59;;;;;;;6.57;4.57;;;4.20;1.00;;;;;;5074391;28;20413;-77
2023/02/28 17:29:29;;;;;;;9.00;4.97;;;4.20;1.00;;;;;;5073485;28;20432;-76
2023/02/28 17:31:59;;;;;;;12.70;6.13;;;4.10;1.00;;;;;;5074750;28;20440;-76
2023/02/28 17:34:29;;;;;;;9.30;4.93;;;4.00;1.00;;;;;;5070914;28;20414;-76
2023/02/28 17:37:28;;;;;;;14.97;8.13;;;3.90;1.00;;;;;;5068246;28;20535;-76
2023/02/28 17:39:59;;;;;;;7.27;5.30;;;3.90;1.00;;;;;;5066069;28;20428;-76
2023/02/28 17:42:29;;;;;;;6.27;4.60;;;3.90;1.00;;;;;;5076562;28;20417;-76
2023/02/28 17:44:59;;;;;;;6.73;5.00;;;3.80;1.00;;;;;;5074354;28;20406;-76
2023/02/28 17:47:29;;;;;;;6.93;4.00;;;3.70;1.00;;;;;;5071109;28;20508;-76
2023/02/28 17:49:54;;;;;;;5.73;4.53;;;3.70;1.00;;;;;;5078951;28;20432;-78
2023/02/28 17:52:29;;;;;;;6.77;4.60;;;3.60;1.00;;;;;;5070048;28;20428;-78
2023/02/28 17:54:59;;;;;;;8.57;5.17;;;3.50;1.00;;;;;;5074622;28;20155;-79
2023/02/28 17:57:29;;;;;;;8.70;5.10;;;3.40;1.00;;;;;;5074486;28;20484;-78
2023/02/28 17:59:59;;;;;;;6.03;4.90;;;3.40;1.00;;;;;;5074359;28;20417;-78
2023/02/28 18:02:29;;;;;;;9.23;5.13;;;3.30;1.00;;;;;;5074245;28;20405;-78
2023/02/28 18:04:59;;;;;;;8.20;4.13;;;3.30;1.00;;;;;;5073113;28;20433;-78
2023/02/28 18:07:59;;;;;;;10.18;5.13;;;3.20;1.00;;;;;;5074252;28;20378;-79
2023/02/28 18:10:32;;;;;;;8.93;4.80;;;3.20;1.00;;;;;;5062750;28;20168;-79
2023/02/28 18:12:59;;;;;;;20.77;4.88;;;3.10;1.00;;;;;;5074020;28;20390;-79
2023/02/28 18:15:29;;;;;;;7.00;4.05;;;3.00;1.00;;;;;;5063461;28;20186;-83
2023/02/28 18:17:59;;;;;;;11.20;4.90;;;3.00;1.00;;;;;;5074144;28;20634;-82